Time;durP1;ratioP1;P1;durP2;ratioP2;P2;SDS_P1;SDS_P2;PMS_P1;PMS_P2;Temp;Humidity;BMP_temperature;BMP_pressure;BME280_temperature;BME280_humidity;BME280_pressure;Samples;Min_cycle;Max_cycle;Signal;HPM_P1;HPM_P2
2023/10/19 00:00:33;;;;;;;;;;;;;;;8.80;37.71;101305.69;5113795;28;19923;-65
2023/10/19 00:03:02;;;;;;;;;;;;;;;8.80;37.95;101296.81;5081124;28;19912;-65
2023/10/19 00:05:29;;;;;;;;;;;;;;;8.82;37.91;101308.22;5076107;28;19916;-65
2023/10/19 00:08:00;;;;;;;;;;;;;;;8.80;38.10;101313.72;5096268;28;20332;-65
2023/10/19 00:10:29;;;;;;;;;;;;;;;8.76;38.20;101309.69;5096220;28;19989;-65
2023/10/19 00:13:03;;;;;;;;;;;;;;;8.74;38.09;101305.50;5096005;28;19920;-65
2023/10/19 00:15:31;;;;;;;;;;;;;;;8.75;37.85;101310.72;5096069;28;19912;-65
2023/10/19 00:17:59;;;;;;;;;;;;;;;8.76;38.25;101308.88;5113211;28;20384;-65
2023/10/19 00:23:13;;;;;;;;;;;;;;;8.79;38.37;101298.66;5087043;28;19912;-64
2023/10/19 00:25:41;;;;;;;;;;;;;;;8.75;38.96;101302.69;5116588;28;19934;-65
2023/10/19 00:28:07;;;;;;;;;;;;;;;8.76;38.54;101301.66;5116388;28;19920;-65
2023/10/19 00:30:35;;;;;;;;;;;;;;;8.77;38.71;101302.53;5116158;28;19922;-65
2023/10/19 00:33:03;;;;;;;;;;;;;;;8.80;38.70;101304.84;5097626;28;19954;-66
2023/10/19 00:35:42;;;;;;;;;;;;;;;8.81;38.22;101312.72;5102077;28;20376;-65
2023/10/19 00:40:59;;;;;;;;;;;;;;;8.81;38.79;101318.09;5077019;28;19912;-66
2023/10/19 00:43:43;;;;;;;;;;;;;;;8.80;38.42;101312.88;5075596;28;19913;-66
2023/10/19 00:46:14;;;;;;;;;;;;;;;8.79;38.84;101316.59;5085139;28;19953;-66
2023/10/19 00:48:40;;;;;;;;;;;;;;;8.76;38.87;101312.38;5096027;28;20387;-66
2023/10/19 00:51:26;;;;;;;;;;;;;;;8.77;39.02;101314.06;5094910;28;19912;-66
2023/10/19 00:53:54;;;;;;;;;;;;;;;8.82;39.00;101309.06;5056669;28;19913;-65
2023/10/19 00:56:20;;;;;;;;;;;;;;;8.86;38.84;101312.25;5112801;27;19912;-66
2023/10/19 00:58:53;;;;;;;;;;;;;;;8.87;39.27;101314.75;5094927;28;19916;-66
2023/10/19 01:01:22;;;;;;;;;;;;;;;8.95;38.93;101316.63;5093756;28;19912;-66
2023/10/19 01:03:52;;;;;;;;;;;;;;;8.98;38.76;101308.28;5091764;28;20057;-65
2023/10/19 01:06:18;;;;;;;;;;;;;;;9.03;38.60;101310.47;5094850;28;19956;-66
2023/10/19 01:08:44;;;;;;;;;;;;;;;9.05;38.40;101309.31;5095076;28;19912;-65
2023/10/19 01:11:15;;;;;;;;;;;;;;;9.13;38.36;101315.69;5094771;28;19926;-65
2023/10/19 01:13:44;;;;;;;;;;;;;;;9.16;38.34;101312.69;5094770;28;20376;-65
2023/10/19 01:16:20;;;;;;;;;;;;;;;9.20;37.90;101306.00;5076524;28;19954;-65
2023/10/19 01:18:53;;;;;;;;;;;;;;;9.17;38.03;101303.63;5095000;28;19960;-66
2023/10/19 01:21:21;;;;;;;;;;;;;;;9.16;37.75;101307.34;5094785;28;20388;-65
2023/10/19 01:23:47;;;;;;;;;;;;;;;9.12;37.89;101304.16;5110888;28;20077;-65
2023/10/19 01:26:18;;;;;;;;;;;;;;;9.15;37.71;101313.69;5094838;28;19952;-65
2023/10/19 01:28:46;;;;;;;;;;;;;;;9.19;37.71;101309.69;5094467;28;19912;-65
2023/10/19 01:33:55;;;;;;;;;;;;;;;9.24;37.43;101318.91;5094935;28;20000;-65
2023/10/19 01:38:49;;;;;;;;;;;;;;;9.22;37.56;101315.53;5094508;28;20007;-65
2023/10/19 01:41:20;;;;;;;;;;;;;;;9.20;37.58;101317.56;5094406;28;19912;-65
2023/10/19 01:43:48;;;;;;;;;;;;;;;9.17;37.69;101317.03;5094141;28;19919;-65
2023/10/19 01:46:21;;;;;;;;;;;;;;;9.13;37.74;101323.75;5094191;28;19912;-65
2023/10/19 01:48:49;;;;;;;;;;;;;;;9.15;37.52;101319.88;5094392;28;19916;-65
2023/10/19 01:51:14;;;;;;;;;;;;;;;9.16;37.70;101307.34;5094569;28;19911;-65
2023/10/19 01:53:42;;;;;;;;;;;;;;;9.16;37.56;101300.13;5093642;28;20424;-65
2023/10/19 01:56:09;;;;;;;;;;;;;;;9.13;37.59;101299.63;5102274;28;19934;-65
2023/10/19 01:58:36;;;;;;;;;;;;;;;9.09;37.80;101294.56;5093869;28;19927;-65
2023/10/19 02:01:06;;;;;;;;;;;;;;;9.09;37.50;101291.06;5093929;28;19912;-66
2023/10/19 02:03:32;;;;;;;;;;;;;;;9.04;37.52;101299.56;5093474;28;19955;-66
2023/10/19 02:05:58;;;;;;;;;;;;;;;9.04;37.56;101293.38;5094270;28;19920;-66
2023/10/19 02:08:26;;;;;;;;;;;;;;;9.02;37.23;101306.09;5094837;28;19973;-66
2023/10/19 02:10:52;;;;;;;;;;;;;;;8.96;37.40;101307.59;5093962;28;19920;-66
2023/10/19 02:13:18;;;;;;;;;;;;;;;8.97;37.61;101300.41;5094226;28;19919;-66
2023/10/19 02:15:44;;;;;;;;;;;;;;;8.91;37.32;101299.22;5094320;28;19916;-66
2023/10/19 02:18:10;;;;;;;;;;;;;;;8.93;37.27;101296.38;5112811;28;20018;-66
2023/10/19 02:20:40;;;;;;;;;;;;;;;8.88;36.97;101303.06;5114773;28;19919;-66
2023/10/19 02:23:06;;;;;;;;;;;;;;;8.83;37.12;101296.50;5114392;28;19958;-66
2023/10/19 02:25:36;;;;;;;;;;;;;;;8.78;37.30;101296.97;5109486;28;19915;-66
2023/10/19 02:28:02;;;;;;;;;;;;;;;8.69;37.41;101288.09;5093595;28;19913;-65
2023/10/19 02:30:27;;;;;;;;;;;;;;;8.63;37.62;101290.56;5094093;28;19935;-65
2023/10/19 02:32:53;;;;;;;;;;;;;;;8.61;37.31;101288.03;5093632;28;20361;-65
2023/10/19 02:35:18;;;;;;;;;;;;;;;8.61;37.34;101293.41;5106141;28;19954;-66
2023/10/19 02:37:44;;;;;;;;;;;;;;;8.58;37.54;101292.88;5093863;28;19923;-66
2023/10/19 02:40:19;;;;;;;;;;;;;;;8.57;37.43;101302.75;5093488;28;20288;-66
2023/10/19 02:42:47;;;;;;;;;;;;;;;8.60;37.05;101296.22;5075576;28;20006;-66
2023/10/19 02:45:15;;;;;;;;;;;;;;;8.55;37.17;101302.06;5093358;28;19998;-65
2023/10/19 02:47:42;;;;;;;;;;;;;;;8.49;37.29;101300.03;5093537;28;19919;-65
2023/10/19 02:50:11;;;;;;;;;;;;;;;8.46;37.24;101298.50;5093339;28;20284;-65
2023/10/19 02:52:36;;;;;;;;;;;;;;;8.42;37.09;101297.16;5093265;28;20022;-65
2023/10/19 02:55:04;;;;;;;;;;;;;;;8.39;37.49;101300.09;5092956;28;19999;-65
2023/10/19 02:57:31;;;;;;;;;;;;;;;8.36;37.22;101308.47;5109039;28;19912;-65
2023/10/19 02:59:58;;;;;;;;;;;;;;;8.39;37.23;101293.91;5114136;28;19912;-65
2023/10/19 03:02:25;;;;;;;;;;;;;;;8.37;37.38;101299.44;5103518;28;20046;-65
2023/10/19 03:04:53;;;;;;;;;;;;;;;8.29;37.24;101305.56;5093670;28;20300;-65
2023/10/19 03:07:18;;;;;;;;;;;;;;;8.28;37.02;101305.72;5093270;28;19912;-65
2023/10/19 03:09:53;;;;;;;;;;;;;;;8.27;37.61;101306.75;5093733;28;19912;-65
2023/10/19 03:12:18;;;;;;;;;;;;;;;8.21;37.56;101302.88;5093440;28;19916;-65
2023/10/19 03:14:47;;;;;;;;;;;;;;;8.17;37.67;101306.81;5113130;28;19995;-65
2023/10/19 03:17:12;;;;;;;;;;;;;;;8.13;37.20;101305.47;5108328;28;19927;-65
2023/10/19 03:19:38;;;;;;;;;;;;;;;8.09;37.53;101298.75;5117907;28;19916;-65
2023/10/19 03:22:05;;;;;;;;;;;;;;;8.05;37.48;101297.41;5118087;28;19998;-65
2023/10/19 03:24:40;;;;;;;;;;;;;;;8.02;37.41;101301.19;5117883;28;19911;-65
2023/10/19 03:27:22;;;;;;;;;;;;;;;7.99;37.75;101298.03;5102397;28;19923;-65
2023/10/19 03:29:53;;;;;;;;;;;;;;;7.90;37.76;101297.94;5097304;28;19947;-65
2023/10/19 03:32:22;;;;;;;;;;;;;;;7.83;38.13;101299.56;5097134;28;20002;-65
2023/10/19 03:34:48;;;;;;;;;;;;;;;7.84;38.06;101295.91;5105057;28;19916;-65
2023/10/19 03:37:14;;;;;;;;;;;;;;;7.78;38.43;101299.19;5102039;28;19912;-65
2023/10/19 03:39:40;;;;;;;;;;;;;;;7.74;38.52;101303.16;5097143;28;19916;-65
2023/10/19 03:42:08;;;;;;;;;;;;;;;7.75;37.70;101297.66;5097243;28;19912;-65
2023/10/19 03:47:11;;;;;;;;;;;;;;;7.70;37.72;101294.59;5097001;28;19919;-65
2023/10/19 03:49:38;;;;;;;;;;;;;;;7.68;38.04;101293.94;5096648;28;20368;-65
2023/10/19 03:54:39;;;;;;;;;;;;;;;7.71;37.82;101287.44;5096356;28;19981;-65
2023/10/19 03:57:11;;;;;;;;;;;;;;;7.63;38.35;101288.19;5108273;28;19919;-65
2023/10/19 03:59:41;;;;;;;;;;;;;;;7.59;37.59;101284.16;5117150;28;19923;-65
2023/10/19 04:02:16;;;;;;;;;;;;;;;7.54;38.50;101291.78;5108889;28;19912;-66
2023/10/19 04:04:48;;;;;;;;;;;;;;;7.53;37.86;101280.25;5096411;28;19919;-65
2023/10/19 04:07:25;;;;;;;;;;;;;;;7.52;38.47;101294.63;5096293;28;19993;-65
2023/10/19 04:09:59;;;;;;;;;;;;;;;7.54;37.94;101286.44;5096109;28;19923;-66
2023/10/19 04:12:25;;;;;;;;;;;;;;;7.52;37.57;101286.63;5096121;28;19912;-65
2023/10/19 04:14:51;;;;;;;;;;;;;;;7.51;38.04;101281.44;5096300;28;20357;-65
2023/10/19 04:17:20;;;;;;;;;;;;;;;7.43;38.42;101295.56;5107711;28;19919;-66
2023/10/19 04:19:46;;;;;;;;;;;;;;;7.44;37.75;101296.38;5116400;28;19916;-65
2023/10/19 04:22:21;;;;;;;;;;;;;;;7.43;37.97;101287.53;5110195;28;20365;-65
2023/10/19 04:24:47;;;;;;;;;;;;;;;7.44;37.71;101288.38;5095458;28;20375;-66
2023/10/19 04:27:12;;;;;;;;;;;;;;;7.43;37.75;101295.56;5096514;28;20002;-66
2023/10/19 04:29:39;;;;;;;;;;;;;;;7.38;37.82;101300.50;5096449;28;19912;-65
2023/10/19 04:32:06;;;;;;;;;;;;;;;7.34;38.09;101297.31;5096149;28;19912;-65
2023/10/19 04:34:32;;;;;;;;;;;;;;;7.33;38.04;101297.44;5101735;28;19912;-66
2023/10/19 04:36:57;;;;;;;;;;;;;;;7.21;37.76;101290.66;5103009;28;20015;-66
2023/10/19 04:39:24;;;;;;;;;;;;;;;7.21;37.96;101286.16;5096163;28;19916;-66
2023/10/19 04:41:49;;;;;;;;;;;;;;;7.26;38.34;101293.69;5095737;28;19919;-66
2023/10/19 04:44:15;;;;;;;;;;;;;;;7.21;38.02;101296.00;5095793;28;19919;-65
2023/10/19 04:46:40;;;;;;;;;;;;;;;7.19;37.61;101304.16;5095607;28;19961;-66
2023/10/19 04:49:06;;;;;;;;;;;;;;;7.22;37.89;101293.16;5095668;28;19927;-66
2023/10/19 04:51:33;;;;;;;;;;;;;;;7.21;38.11;101294.16;5095641;28;19919;-65
2023/10/19 04:53:58;;;;;;;;;;;;;;;7.19;37.88;101296.16;5095145;28;19916;-65
2023/10/19 04:56:24;;;;;;;;;;;;;;;7.20;37.64;101299.66;5101774;28;19916;-66
2023/10/19 04:58:50;;;;;;;;;;;;;;;7.17;38.13;101304.31;5115938;28;19985;-65
2023/10/19 05:01:15;;;;;;;;;;;;;;;7.15;37.19;101300.09;5114868;28;19912;-65
2023/10/19 05:03:41;;;;;;;;;;;;;;;7.15;37.80;101297.41;5095439;28;20285;-65
2023/10/19 05:06:06;;;;;;;;;;;;;;;7.22;37.64;101300.34;5095359;28;19912;-65
2023/10/19 05:08:32;;;;;;;;;;;;;;;7.17;37.59;101301.63;5095496;28;19912;-65
2023/10/19 05:10:59;;;;;;;;;;;;;;;7.13;37.21;101299.41;5094969;28;19920;-66
2023/10/19 05:13:25;;;;;;;;;;;;;;;7.13;37.31;101294.91;5095096;28;19913;-65
2023/10/19 05:15:51;;;;;;;;;;;;;;;7.07;37.72;101300.84;5095198;28;20359;-65
2023/10/19 05:18:16;;;;;;;;;;;;;;;7.09;37.65;101298.88;5110225;28;19923;-65
2023/10/19 05:20:41;;;;;;;;;;;;;;;7.07;37.76;101302.69;5077401;28;19912;-65
2023/10/19 05:23:13;;;;;;;;;;;;;;;7.07;37.58;101294.66;5095598;28;19912;-66
2023/10/19 05:25:39;;;;;;;;;;;;;;;7.05;37.93;101296.66;5095656;28;20265;-65
2023/10/19 05:28:05;;;;;;;;;;;;;;;7.07;38.10;101300.00;5095542;28;20017;-65
2023/10/19 05:30:31;;;;;;;;;;;;;;;7.05;37.13;101297.50;5095115;28;20363;-66
2023/10/19 05:32:57;;;;;;;;;;;;;;;7.03;37.96;101303.97;5076814;28;20027;-66
2023/10/19 05:35:23;;;;;;;;;;;;;;;7.00;37.66;101298.94;5107529;28;20376;-66
2023/10/19 05:37:49;;;;;;;;;;;;;;;6.96;37.61;101291.25;5094985;28;19916;-66
2023/10/19 05:40:15;;;;;;;;;;;;;;;6.92;37.63;101292.50;5094833;28;19938;-66
2023/10/19 05:42:40;;;;;;;;;;;;;;;6.91;37.89;101296.19;5094823;28;19916;-65
2023/10/19 05:45:06;;;;;;;;;;;;;;;6.93;37.50;101306.72;5094735;28;19916;-65
2023/10/19 05:47:31;;;;;;;;;;;;;;;6.91;38.03;101306.00;5094962;28;19919;-65
2023/10/19 05:49:57;;;;;;;;;;;;;;;6.88;37.38;101311.66;5094986;28;19955;-65
2023/10/19 05:52:22;;;;;;;;;;;;;;;6.86;36.87;101313.63;5095113;28;20391;-66
2023/10/19 05:54:49;;;;;;;;;;;;;;;6.83;37.72;101313.91;5094746;28;19969;-66
2023/10/19 05:57:14;;;;;;;;;;;;;;;6.81;37.49;101310.56;5101960;28;19912;-66
2023/10/19 05:59:40;;;;;;;;;;;;;;;6.81;36.84;101311.38;5094398;28;20330;-66
2023/10/19 06:02:07;;;;;;;;;;;;;;;6.81;37.65;101310.56;5094779;28;19912;-66
2023/10/19 06:04:32;;;;;;;;;;;;;;;6.79;37.42;101310.69;5094651;28;19962;-65
2023/10/19 06:06:58;;;;;;;;;;;;;;;6.74;37.00;101311.16;5094605;28;19912;-65
2023/10/19 06:09:29;;;;;;;;;;;;;;;6.82;37.18;101312.25;5094200;28;19943;-65
2023/10/19 06:11:54;;;;;;;;;;;;;;;6.81;37.58;101307.88;5075951;28;20354;-65
2023/10/19 06:14:20;;;;;;;;;;;;;;;6.78;37.48;101315.22;5094023;28;19912;-65
2023/10/19 06:16:45;;;;;;;;;;;;;;;6.76;37.50;101309.19;5101098;28;19935;-66
2023/10/19 06:19:10;;;;;;;;;;;;;;;6.74;36.86;101318.31;5114539;28;20011;-66
2023/10/19 06:21:36;;;;;;;;;;;;;;;6.78;37.29;101317.88;5130622;27;20511;-65
2023/10/19 06:24:02;;;;;;;;;;;;;;;6.80;37.07;101315.06;5115366;28;19916;-66
2023/10/19 06:26:28;;;;;;;;;;;;;;;6.78;37.08;101314.38;5115319;28;19927;-66
2023/10/19 06:28:58;;;;;;;;;;;;;;;6.77;36.66;101310.84;5115052;28;19923;-66
2023/10/19 06:31:25;;;;;;;;;;;;;;;6.77;37.15;101304.69;5074374;28;19912;-66
2023/10/19 06:33:51;;;;;;;;;;;;;;;6.78;37.14;101309.88;5074183;28;19981;-66
2023/10/19 06:36:16;;;;;;;;;;;;;;;6.79;37.33;101306.19;5094375;28;20352;-66
2023/10/19 06:38:42;;;;;;;;;;;;;;;6.81;37.28;101306.06;5094355;28;20021;-65
2023/10/19 06:41:11;;;;;;;;;;;;;;;6.85;37.69;101309.28;5094543;28;19970;-66
2023/10/19 06:43:37;;;;;;;;;;;;;;;6.81;37.07;101306.06;5094612;28;19947;-66
2023/10/19 06:46:02;;;;;;;;;;;;;;;6.82;36.59;101312.25;5094183;28;19959;-65
2023/10/19 06:48:27;;;;;;;;;;;;;;;6.84;37.39;101313.78;5095686;28;19912;-66
2023/10/19 06:50:52;;;;;;;;;;;;;;;6.83;37.17;101313.91;5098697;28;19919;-66
2023/10/19 06:53:18;;;;;;;;;;;;;;;6.83;36.41;101314.75;5098718;28;20280;-65
2023/10/19 06:55:43;;;;;;;;;;;;;;;6.86;36.85;101313.63;5097504;28;19950;-65
2023/10/19 06:58:09;;;;;;;;;;;;;;;6.82;37.34;101317.59;5118241;28;19968;-66
2023/10/19 07:00:34;;;;;;;;;;;;;;;6.85;36.39;101319.94;5118704;28;19938;-66
2023/10/19 07:03:00;;;;;;;;;;;;;;;6.87;36.88;101320.63;5102930;28;20011;-66
2023/10/19 07:05:29;;;;;;;;;;;;;;;6.89;36.82;101318.66;5098169;28;20280;-66
2023/10/19 07:07:56;;;;;;;;;;;;;;;6.92;37.11;101321.03;5097688;28;19996;-64
2023/10/19 07:10:22;;;;;;;;;;;;;;;6.91;37.06;101325.56;5097077;28;19923;-64
2023/10/19 07:12:48;;;;;;;;;;;;;;;6.95;36.63;101324.25;5097671;28;19938;-65
2023/10/19 07:15:14;;;;;;;;;;;;;;;6.95;37.06;101326.94;5097567;28;19912;-64
2023/10/19 07:17:40;;;;;;;;;;;;;;;7.02;36.75;101320.97;5111893;28;20034;-65
2023/10/19 07:20:06;;;;;;;;;;;;;;;7.05;36.47;101328.69;5117756;28;19919;-64
2023/10/19 07:22:32;;;;;;;;;;;;;;;7.07;36.59;101321.38;5100280;28;19961;-64
2023/10/19 07:24:57;;;;;;;;;;;;;;;7.10;36.15;101321.91;5096781;28;19927;-64
2023/10/19 07:27:23;;;;;;;;;;;;;;;7.09;36.17;101320.22;5097046;28;19912;-64
2023/10/19 07:29:48;;;;;;;;;;;;;;;7.15;36.45;101322.31;5097269;28;19911;-64
2023/10/19 07:32:16;;;;;;;;;;;;;;;7.22;36.38;101329.72;5097238;28;19919;-64
2023/10/19 07:34:44;;;;;;;;;;;;;;;7.22;36.44;101319.03;5104217;28;20372;-64
2023/10/19 07:37:14;;;;;;;;;;;;;;;7.27;36.08;101330.94;5102255;28;20360;-64
2023/10/19 07:39:42;;;;;;;;;;;;;;;7.32;36.25;101338.53;5096792;28;20286;-64
2023/10/19 07:42:07;;;;;;;;;;;;;;;7.38;36.31;101326.41;5097309;28;20395;-64
2023/10/19 07:44:33;;;;;;;;;;;;;;;7.39;35.75;101320.03;5112481;28;19928;-64
2023/10/19 07:46:58;;;;;;;;;;;;;;;7.39;36.12;101318.22;5097081;28;20377;-63
2023/10/19 07:49:25;;;;;;;;;;;;;;;7.36;35.40;101324.72;5096647;28;20427;-63
2023/10/19 07:51:51;;;;;;;;;;;;;;;7.33;35.22;101319.66;5096718;28;19912;-63
2023/10/19 07:54:17;;;;;;;;;;;;;;;7.40;35.29;101327.91;5096643;28;20493;-65
2023/10/19 07:56:43;;;;;;;;;;;;;;;7.49;35.41;101326.19;5105274;28;19912;-64
2023/10/19 07:59:09;;;;;;;;;;;;;;;7.52;35.27;101329.38;5095616;28;20007;-62
2023/10/19 08:01:34;;;;;;;;;;;;;;;7.43;35.27;101324.09;5095710;28;19943;-65
2023/10/19 08:03:59;;;;;;;;;;;;;;;7.39;34.88;101328.06;5096159;28;19955;-64
2023/10/19 08:06:26;;;;;;;;;;;;;;;7.50;35.33;101328.69;5078308;28;19969;-65
2023/10/19 08:08:51;;;;;;;;;;;;;;;7.55;35.42;101331.72;5096109;28;20353;-64
2023/10/19 08:11:19;;;;;;;;;;;;;;;7.52;35.11;101329.38;5096359;28;19964;-64
2023/10/19 08:13:44;;;;;;;;;;;;;;;7.60;34.98;101333.13;5096059;28;20013;-70
2023/10/19 08:16:12;;;;;;;;;;;;;;;7.70;35.38;101337.38;5097793;28;19912;-71
2023/10/19 08:18:37;;;;;;;;;;;;;;;7.59;34.66;101332.28;5130861;27;19927;-72
2023/10/19 08:21:02;;;;;;;;;;;;;;;7.71;34.73;101338.25;5115138;28;19912;-71
2023/10/19 08:23:28;;;;;;;;;;;;;;;7.79;35.18;101329.47;5097765;28;19912;-71
2023/10/19 08:25:54;;;;;;;;;;;;;;;7.82;34.81;101331.81;5094730;28;19916;-71
2023/10/19 08:28:20;;;;;;;;;;;;;;;7.82;34.49;101330.00;5097835;28;20003;-71
2023/10/19 08:30:56;;;;;;;;;;;;;;;7.79;34.00;101329.47;5094813;28;20010;-71
2023/10/19 08:33:22;;;;;;;;;;;;;;;7.82;34.51;101327.31;5095340;28;20274;-71
2023/10/19 08:35:47;;;;;;;;;;;;;;;7.87;34.03;101330.34;5095703;28;19927;-71
2023/10/19 08:38:12;;;;;;;;;;;;;;;7.90;34.08;101326.53;5095518;28;19923;-71
2023/10/19 08:40:39;;;;;;;;;;;;;;;7.92;34.29;101321.88;5095558;28;20309;-71
2023/10/19 08:43:07;;;;;;;;;;;;;;;7.89;33.69;101322.16;5095226;28;20007;-71
2023/10/19 08:45:34;;;;;;;;;;;;;;;8.01;34.25;101318.25;5095560;28;19999;-71
2023/10/19 08:48:01;;;;;;;;;;;;;;;8.11;33.71;101312.81;5077287;28;20006;-71
2023/10/19 08:50:28;;;;;;;;;;;;;;;8.17;33.85;101320.19;5095369;28;19993;-71
2023/10/19 08:52:54;;;;;;;;;;;;;;;8.26;33.92;101316.59;5095112;28;20004;-71
2023/10/19 08:55:20;;;;;;;;;;;;;;;8.28;33.44;101324.47;5100109;28;19912;-71
2023/10/19 08:57:48;;;;;;;;;;;;;;;8.30;33.45;101322.47;5097800;28;19912;-71
2023/10/19 09:00:17;;;;;;;;;;;;;;;8.37;33.49;101322.69;5095246;28;19968;-71
2023/10/19 09:02:42;;;;;;;;;;;;;;;8.44;33.46;101324.59;5073589;28;19999;-71
2023/10/19 09:05:08;;;;;;;;;;;;;;;8.42;33.58;101317.72;5094820;28;20012;-71
2023/10/19 09:07:34;;;;;;;;;;;;;;;8.53;33.32;101317.47;5094972;28;19912;-72
2023/10/19 09:10:01;;;;;;;;;;;;;;;8.47;32.77;101316.25;5094561;28;19916;-73
2023/10/19 09:12:26;;;;;;;;;;;;;;;8.60;32.82;101306.94;5094977;28;20467;-73
2023/10/19 09:14:52;;;;;;;;;;;;;;;8.67;32.62;101316.00;5095399;28;19912;-73
2023/10/19 09:17:28;;;;;;;;;;;;;;;8.64;32.10;101316.34;5088469;28;19922;-74
2023/10/19 09:19:54;;;;;;;;;;;;;;;8.83;32.52;101317.94;5093528;28;19924;-73
2023/10/19 09:22:22;;;;;;;;;;;;;;;8.91;32.05;101320.63;5094691;28;19912;-73
2023/10/19 09:24:53;;;;;;;;;;;;;;;8.99;32.22;101322.50;5094858;28;19947;-75
2023/10/19 09:27:19;;;;;;;;;;;;;;;9.00;32.46;101316.16;5094807;28;20007;-73
2023/10/19 09:29:45;;;;;;;;;;;;;;;9.03;31.45;101314.00;5094584;28;19920;-74
2023/10/19 09:32:13;;;;;;;;;;;;;;;9.08;31.31;101317.03;5094670;28;20433;-74
2023/10/19 09:34:40;;;;;;;;;;;;;;;9.23;31.57;101319.91;5094436;28;19965;-74
2023/10/19 09:37:06;;;;;;;;;;;;;;;9.27;31.06;101318.59;5076307;28;19912;-73
2023/10/19 09:39:35;;;;;;;;;;;;;;;9.43;31.24;101323.13;5094578;28;19981;-73
2023/10/19 09:42:10;;;;;;;;;;;;;;;9.58;31.09;101325.16;5094450;28;19959;-73
2023/10/19 09:44:43;;;;;;;;;;;;;;;9.64;30.47;101325.34;5094575;28;19913;-73
2023/10/19 09:47:12;;;;;;;;;;;;;;;9.77;30.72;101327.53;5094308;28;19912;-73
2023/10/19 09:49:42;;;;;;;;;;;;;;;9.96;31.26;101322.84;5076056;28;20296;-73
2023/10/19 09:52:09;;;;;;;;;;;;;;;9.94;30.11;101319.50;5094397;28;19919;-74
2023/10/19 09:54:42;;;;;;;;;;;;;;;10.04;30.10;101323.66;5093665;28;19912;-74
2023/10/19 09:57:12;;;;;;;;;;;;;;;10.17;29.98;101317.78;5103775;28;19923;-74
2023/10/19 09:59:40;;;;;;;;;;;;;;;10.36;30.30;101319.28;5090919;28;19916;-73
2023/10/19 10:02:06;;;;;;;;;;;;;;;10.50;29.58;101320.44;5072482;28;19958;-74
2023/10/19 10:04:32;;;;;;;;;;;;;;;10.56;28.93;101318.91;5089564;28;19913;-73
2023/10/19 10:06:59;;;;;;;;;;;;;;;10.71;29.51;101319.84;5073810;28;19970;-73
2023/10/19 10:09:25;;;;;;;;;;;;;;;10.87;29.65;101308.22;5073737;28;20006;-73
2023/10/19 10:11:54;;;;;;;;;;;;;;;11.01;29.12;101310.19;5073682;28;19974;-74
2023/10/19 10:14:21;;;;;;;;;;;;;;;11.11;29.50;101306.44;5092695;28;19962;-72
2023/10/19 10:16:48;;;;;;;;;;;;;;;11.13;28.87;101294.47;5101078;28;20365;-72
2023/10/19 10:19:20;;;;;;;;;;;;;;;11.24;28.62;101290.56;5111615;28;19915;-72
2023/10/19 10:22:04;;;;;;;;;;;;;;;11.30;28.71;101297.91;5094069;28;19912;-72
2023/10/19 10:24:31;;;;;;;;;;;;;;;11.41;28.22;101292.09;5093285;28;19912;-72
2023/10/19 10:27:03;;;;;;;;;;;;;;;11.45;28.13;101289.06;5094215;28;19951;-72
2023/10/19 10:29:29;;;;;;;;;;;;;;;11.52;28.08;101293.56;5094231;28;19915;-72
2023/10/19 10:31:54;;;;;;;;;;;;;;;11.63;28.80;101297.69;5094222;28;19916;-72
2023/10/19 10:34:34;;;;;;;;;;;;;;;11.76;27.89;101284.44;5093581;28;19951;-72
2023/10/19 10:37:02;;;;;;;;;;;;;;;11.88;28.58;101290.22;5093969;28;19968;-72
2023/10/19 10:39:27;;;;;;;;;;;;;;;11.91;28.54;101292.59;5093698;28;20261;-72
2023/10/19 10:41:59;;;;;;;;;;;;;;;12.09;27.94;101288.72;5075722;28;19937;-72
2023/10/19 10:44:40;;;;;;;;;;;;;;;12.14;27.78;101286.31;5093893;28;19947;-72
2023/10/19 10:47:10;;;;;;;;;;;;;;;12.25;27.87;101285.88;5094100;28;19912;-72
2023/10/19 10:49:46;;;;;;;;;;;;;;;12.35;27.72;101281.06;5094388;28;19947;-72
2023/10/19 10:52:11;;;;;;;;;;;;;;;12.42;27.36;101274.91;5075910;28;19924;-72
2023/10/19 10:54:37;;;;;;;;;;;;;;;12.48;26.96;101283.09;5075833;28;19916;-72
2023/10/19 10:57:03;;;;;;;;;;;;;;;12.59;27.64;101277.25;5109337;28;19934;-72
2023/10/19 10:59:28;;;;;;;;;;;;;;;12.76;27.05;101282.44;5095851;28;20014;-72
2023/10/19 11:01:53;;;;;;;;;;;;;;;12.96;27.36;101274.56;5107318;28;19955;-73
2023/10/19 11:04:19;;;;;;;;;;;;;;;13.10;27.78;101267.50;5093278;28;19919;-72
2023/10/19 11:06:51;;;;;;;;;;;;;;;13.32;26.56;101274.59;5075559;28;20360;-73
2023/10/19 11:09:19;;;;;;;;;;;;;;;13.42;26.64;101273.44;5093697;28;20264;-73
2023/10/19 11:11:45;;;;;;;;;;;;;;;13.67;27.78;101257.69;5084785;28;19947;-73
2023/10/19 11:14:11;;;;;;;;;;;;;;;13.66;26.47;101264.94;5093265;28;20008;-73
2023/10/19 11:16:37;;;;;;;;;;;;;;;13.79;25.89;101255.31;5123465;28;19957;-73
2023/10/19 11:19:02;;;;;;;;;;;;;;;14.01;27.48;101262.31;5113485;28;20402;-74
2023/10/19 11:21:28;;;;;;;;;;;;;;;14.17;26.29;101258.50;5105772;28;19955;-74
2023/10/19 11:23:53;;;;;;;;;;;;;;;14.32;25.27;101263.78;5093362;28;20295;-74
2023/10/19 11:26:20;;;;;;;;;;;;;;;14.42;27.09;101258.03;5075462;28;19964;-74
2023/10/19 11:28:51;;;;;;;;;;;;;;;14.60;26.63;101254.78;5093160;28;19912;-73
2023/10/19 11:31:23;;;;;;;;;;;;;;;14.73;26.33;101254.03;5074931;28;20004;-74
2023/10/19 11:33:50;;;;;;;;;;;;;;;14.94;24.74;101250.38;5093489;28;20337;-73
2023/10/19 11:36:16;;;;;;;;;;;;;;;15.15;24.93;101255.63;5106825;28;19942;-73
2023/10/19 11:38:45;;;;;;;;;;;;;;;15.25;25.21;101252.53;5112591;28;19978;-74
2023/10/19 11:41:12;;;;;;;;;;;;;;;15.33;24.77;101246.09;5078838;28;19947;-75
2023/10/19 11:43:38;;;;;;;;;;;;;;;15.55;24.89;101247.56;5078555;28;19919;-75
2023/10/19 11:46:06;;;;;;;;;;;;;;;15.57;24.29;101242.78;5096681;28;20413;-74
2023/10/19 11:48:32;;;;;;;;;;;;;;;15.84;24.33;101250.94;5112266;28;20002;-73
2023/10/19 11:50:57;;;;;;;;;;;;;;;16.02;24.83;101253.84;5096878;28;19955;-74
2023/10/19 11:53:23;;;;;;;;;;;;;;;16.22;24.75;101250.28;5078718;28;19966;-74
2023/10/19 11:55:48;;;;;;;;;;;;;;;16.38;25.45;101241.69;5104583;28;19912;-74
2023/10/19 11:58:14;;;;;;;;;;;;;;;16.32;22.19;101252.53;5096419;28;19923;-73
2023/10/19 12:00:39;;;;;;;;;;;;;;;16.39;23.75;101251.47;5096656;28;19957;-74
2023/10/19 12:03:06;;;;;;;;;;;;;;;16.47;23.97;101239.56;5096330;28;19918;-74
2023/10/19 12:05:31;;;;;;;;;;;;;;;16.62;23.87;101242.00;5098274;28;19912;-74
2023/10/19 12:07:57;;;;;;;;;;;;;;;16.87;23.77;101222.34;5089795;28;19985;-74
2023/10/19 12:10:29;;;;;;;;;;;;;;;17.07;24.99;101233.03;5097743;28;20383;-74
2023/10/19 12:12:56;;;;;;;;;;;;;;;17.12;22.77;101228.63;5097188;28;20370;-74
2023/10/19 12:15:22;;;;;;;;;;;;;;;17.31;23.96;101217.84;5096065;28;19916;-74
2023/10/19 12:17:49;;;;;;;;;;;;;;;17.34;24.10;101212.00;5103312;28;20343;-74
2023/10/19 12:20:14;;;;;;;;;;;;;;;17.42;23.62;101219.88;5111755;28;19912;-74
2023/10/19 12:22:40;;;;;;;;;;;;;;;17.61;22.49;101215.34;5096042;28;19974;-74
2023/10/19 12:25:05;;;;;;;;;;;;;;;17.63;21.99;101209.69;5095981;28;20310;-74
2023/10/19 12:27:31;;;;;;;;;;;;;;;17.68;22.33;101207.13;5096152;28;19965;-75
2023/10/19 12:29:56;;;;;;;;;;;;;;;17.70;22.83;101205.00;5096058;28;19915;-75
2023/10/19 12:32:24;;;;;;;;;;;;;;;17.67;22.06;101217.16;5061082;28;19916;-75
2023/10/19 12:34:53;;;;;;;;;;;;;;;17.73;21.81;101216.28;5104170;28;19927;-75
2023/10/19 12:37:18;;;;;;;;;;;;;;;17.72;21.94;101214.63;5081513;28;20372;-75
2023/10/19 12:39:50;;;;;;;;;;;;;;;17.73;22.05;101212.72;5077332;28;19942;-75
2023/10/19 12:42:16;;;;;;;;;;;;;;;17.74;21.95;101214.41;5095529;28;20032;-74
2023/10/19 12:44:41;;;;;;;;;;;;;;;17.78;23.25;101212.91;5095874;28;19912;-74
2023/10/19 12:47:17;;;;;;;;;;;;;;;17.80;21.82;101208.06;5094903;28;19916;-75
2023/10/19 12:49:45;;;;;;;;;;;;;;;17.69;21.82;101208.81;5095482;28;19912;-75
2023/10/19 12:52:10;;;;;;;;;;;;;;;17.63;20.63;101206.97;5095513;28;19912;-73
2023/10/19 12:54:36;;;;;;;;;;;;;;;17.60;22.03;101197.38;5110920;28;19912;-74
2023/10/19 12:57:03;;;;;;;;;;;;;;;17.75;22.96;101197.03;5085701;28;19919;-75
2023/10/19 12:59:29;;;;;;;;;;;;;;;17.86;22.28;101188.19;5095475;28;20429;-75
2023/10/19 13:01:57;;;;;;;;;;;;;;;18.10;22.79;101191.06;5095168;28;19912;-74